Time;durP1;ratioP1;P1;durP2;ratioP2;P2;SDS_P1;SDS_P2;PMS_P1;PMS_P2;Temp;Humidity;BMP_temperature;BMP_pressure;BME280_temperature;BME280_humidity;BME280_pressure;Samples;Min_cycle;Max_cycle;Signal;HPM_P1;HPM_P2
2022/02/27 00:01:23;;;;;;;512.13;93.70;;;;;;;;;;6382261;22;20234;-90
2022/02/27 00:03:50;;;;;;;504.52;92.20;;;;;;;;;;6380943;22;20196;-93
2022/02/27 00:06:16;;;;;;;514.40;97.53;;;;;;;;;;6380069;22;20202;-92
2022/02/27 00:08:43;;;;;;;521.15;98.25;;;;;;;;;;6380200;22;20745;-92
2022/02/27 00:11:09;;;;;;;518.78;102.05;;;;;;;;;;6380226;22;20237;-96
2022/02/27 00:13:37;;;;;;;510.95;95.68;;;;;;;;;;6381010;22;20184;-91
2022/02/27 00:16:03;;;;;;;534.08;106.75;;;;;;;;;;6380603;22;20253;-93
2022/02/27 00:18:30;;;;;;;521.38;103.45;;;;;;;;;;6380560;22;20225;-95
2022/02/27 00:20:56;;;;;;;518.13;103.07;;;;;;;;;;6379251;22;20176;-92
2022/02/27 00:23:25;;;;;;;531.25;106.90;;;;;;;;;;6379070;22;20188;-92
2022/02/27 00:25:52;;;;;;;520.67;101.40;;;;;;;;;;6379905;22;20202;-91
2022/02/27 00:28:18;;;;;;;529.78;105.30;;;;;;;;;;6380673;22;20173;-89
2022/02/27 00:30:46;;;;;;;528.83;105.88;;;;;;;;;;6381000;22;20203;-92
2022/02/27 00:33:13;;;;;;;532.72;101.50;;;;;;;;;;6380239;22;20205;-95
2022/02/27 00:35:40;;;;;;;560.05;113.90;;;;;;;;;;6378342;22;20208;-93
2022/02/27 00:38:07;;;;;;;547.35;107.57;;;;;;;;;;6380146;22;20180;-95
2022/02/27 00:40:34;;;;;;;555.63;106.60;;;;;;;;;;6382336;22;20168;-92
2022/02/27 00:43:00;;;;;;;530.72;98.55;;;;;;;;;;6381963;22;20172;-93
2022/02/27 00:45:27;;;;;;;526.83;103.70;;;;;;;;;;6379662;22;20176;-91
2022/02/27 00:47:55;;;;;;;528.00;101.40;;;;;;;;;;6379791;22;20194;-95
2022/02/27 00:50:21;;;;;;;527.33;103.95;;;;;;;;;;6378328;22;20179;-90
2022/02/27 00:52:48;;;;;;;533.60;110.78;;;;;;;;;;6379160;22;20172;-95
2022/02/27 00:55:14;;;;;;;528.85;107.38;;;;;;;;;;6379010;22;20547;-93
2022/02/27 00:57:41;;;;;;;524.58;97.13;;;;;;;;;;6377916;22;20173;-96
2022/02/27 01:00:08;;;;;;;523.20;106.10;;;;;;;;;;6378742;22;20181;-92
2022/02/27 01:02:35;;;;;;;517.67;94.80;;;;;;;;;;6379405;22;20173;-92
2022/02/27 01:05:02;;;;;;;526.35;103.22;;;;;;;;;;6380008;22;20216;-90
2022/02/27 01:07:29;;;;;;;519.30;101.70;;;;;;;;;;6380506;22;20176;-95
2022/02/27 01:09:55;;;;;;;523.53;106.47;;;;;;;;;;6380600;22;20198;-91
2022/02/27 01:12:22;;;;;;;437.10;86.47;;;;;;;;;;6381605;22;20172;-91
2022/02/27 01:14:48;;;;;;;441.50;84.13;;;;;;;;;;6382748;22;20221;-89
2022/02/27 01:17:15;;;;;;;292.38;68.38;;;;;;;;;;6383503;22;20650;-91
2022/02/27 01:19:41;;;;;;;292.02;71.25;;;;;;;;;;6381968;22;20237;-92
2022/02/27 01:22:09;;;;;;;283.80;66.43;;;;;;;;;;6381876;22;20172;-93
2022/02/27 01:24:36;;;;;;;279.20;68.47;;;;;;;;;;6383446;22;20214;-91
2022/02/27 01:27:02;;;;;;;296.65;72.68;;;;;;;;;;6382404;22;20222;-91
2022/02/27 01:29:29;;;;;;;295.52;70.30;;;;;;;;;;6381869;22;20246;-90
2022/02/27 01:31:55;;;;;;;271.02;69.30;;;;;;;;;;6381400;22;20173;-89
2022/02/27 01:34:22;;;;;;;286.35;70.55;;;;;;;;;;6381305;22;20172;-89
2022/02/27 01:36:48;;;;;;;283.85;71.38;;;;;;;;;;6379016;22;20173;-92
2022/02/27 01:39:16;;;;;;;287.42;69.95;;;;;;;;;;6382610;22;20194;-91
2022/02/27 01:41:42;;;;;;;318.15;74.63;;;;;;;;;;6382842;22;20202;-90
2022/02/27 01:44:09;;;;;;;305.52;70.75;;;;;;;;;;6383575;22;20222;-94
2022/02/27 01:46:35;;;;;;;311.27;74.45;;;;;;;;;;6382475;22;20241;-91
2022/02/27 01:49:02;;;;;;;409.80;78.85;;;;;;;;;;6383181;22;20218;-91
2022/02/27 01:51:29;;;;;;;308.48;69.97;;;;;;;;;;6382610;22;20173;-91
2022/02/27 01:53:55;;;;;;;376.13;86.05;;;;;;;;;;6382347;22;20176;-91
2022/02/27 01:56:23;;;;;;;293.83;70.40;;;;;;;;;;6381503;22;20649;-90
2022/02/27 01:58:50;;;;;;;315.45;71.65;;;;;;;;;;6381367;22;20173;-90
2022/02/27 02:01:16;;;;;;;306.75;71.47;;;;;;;;;;6381317;22;20173;-91
2022/02/27 02:03:43;;;;;;;299.23;68.55;;;;;;;;;;6380734;22;20199;-94
2022/02/27 02:06:10;;;;;;;307.35;72.95;;;;;;;;;;6381144;22;20176;-93
2022/02/27 02:08:36;;;;;;;306.00;71.25;;;;;;;;;;6382294;22;20173;-95
2022/02/27 02:11:02;;;;;;;287.45;71.35;;;;;;;;;;6382271;22;20173;-92
2022/02/27 02:13:30;;;;;;;311.73;74.03;;;;;;;;;;6382921;22;20746;-95
2022/02/27 02:15:57;;;;;;;301.13;71.45;;;;;;;;;;6383354;22;20197;-96
2022/02/27 02:18:24;;;;;;;309.92;74.70;;;;;;;;;;6383629;22;20242;-92
2022/02/27 02:20:52;;;;;;;310.38;74.35;;;;;;;;;;6380957;22;20179;-90
2022/02/27 02:23:18;;;;;;;280.05;74.30;;;;;;;;;;6381127;22;20202;-90
2022/02/27 02:25:44;;;;;;;295.45;76.35;;;;;;;;;;6380250;22;20205;-92
2022/02/27 02:28:11;;;;;;;327.45;79.30;;;;;;;;;;6378514;22;20173;-91
2022/02/27 02:30:37;;;;;;;305.08;75.47;;;;;;;;;;6378345;22;20176;-93
2022/02/27 02:33:05;;;;;;;282.77;69.80;;;;;;;;;;6380615;22;20229;-96
2022/02/27 02:35:32;;;;;;;299.30;74.43;;;;;;;;;;6384746;22;20168;-92
2022/02/27 02:38:00;;;;;;;286.35;71.78;;;;;;;;;;6382393;22;20173;-90
2022/02/27 02:40:27;;;;;;;296.35;72.15;;;;;;;;;;6382503;22;20199;-91
2022/02/27 02:42:53;;;;;;;294.67;70.85;;;;;;;;;;6381951;22;20221;-93
2022/02/27 02:45:20;;;;;;;307.90;76.65;;;;;;;;;;6379943;22;20196;-96
2022/02/27 02:47:47;;;;;;;287.55;64.20;;;;;;;;;;6382365;22;20177;-94
2022/02/27 02:50:15;;;;;;;314.02;76.20;;;;;;;;;;6380985;22;20173;-92
2022/02/27 02:52:41;;;;;;;267.58;65.15;;;;;;;;;;6381723;22;20176;-94
2022/02/27 02:55:12;;;;;;;307.90;73.40;;;;;;;;;;6381018;22;20174;-94
2022/02/27 02:57:38;;;;;;;322.90;74.25;;;;;;;;;;6380826;22;20237;-94
2022/02/27 03:00:08;;;;;;;302.67;73.80;;;;;;;;;;6381979;22;20206;-93
2022/02/27 03:02:34;;;;;;;305.02;73.53;;;;;;;;;;6381212;22;20176;-93
2022/02/27 03:05:01;;;;;;;288.75;66.57;;;;;;;;;;6381526;22;20200;-94
2022/02/27 03:07:27;;;;;;;314.38;75.97;;;;;;;;;;6380535;22;20180;-94
2022/02/27 03:09:54;;;;;;;311.02;74.30;;;;;;;;;;6381423;22;20172;-94
2022/02/27 03:12:22;;;;;;;329.08;75.05;;;;;;;;;;6381284;22;20198;-95
2022/02/27 03:14:50;;;;;;;327.15;76.72;;;;;;;;;;6379674;22;20203;-93
2022/02/27 03:17:16;;;;;;;333.42;78.45;;;;;;;;;;6380702;22;20173;-95
2022/02/27 03:19:43;;;;;;;317.52;74.65;;;;;;;;;;6380297;22;20169;-92
2022/02/27 03:22:09;;;;;;;312.58;71.80;;;;;;;;;;6380752;22;20226;-94
2022/02/27 03:24:36;;;;;;;323.27;75.97;;;;;;;;;;6381215;22;20193;-93
2022/02/27 03:27:02;;;;;;;328.60;75.90;;;;;;;;;;6381233;22;20172;-94
2022/02/27 03:29:30;;;;;;;319.27;76.30;;;;;;;;;;6378885;22;20177;-94
2022/02/27 03:31:56;;;;;;;316.33;78.45;;;;;;;;;;6378217;22;20173;-95
2022/02/27 03:34:23;;;;;;;304.52;72.50;;;;;;;;;;6381272;22;20173;-92
2022/02/27 03:36:49;;;;;;;324.20;77.80;;;;;;;;;;6381319;22;20194;-90
2022/02/27 03:39:16;;;;;;;324.65;74.60;;;;;;;;;;6381099;22;20229;-90
2022/02/27 03:41:42;;;;;;;314.80;76.45;;;;;;;;;;6380215;22;20198;-92
2022/02/27 03:44:09;;;;;;;312.25;77.88;;;;;;;;;;6380408;22;20572;-92
2022/02/27 03:46:37;;;;;;;310.85;75.32;;;;;;;;;;6380777;22;20168;-92
2022/02/27 03:49:04;;;;;;;296.90;74.72;;;;;;;;;;6379738;22;20200;-92
2022/02/27 03:51:31;;;;;;;288.65;71.00;;;;;;;;;;6378173;22;20172;-91
2022/02/27 03:53:58;;;;;;;285.50;70.80;;;;;;;;;;6380498;22;20218;-92
2022/02/27 03:56:24;;;;;;;282.70;74.57;;;;;;;;;;6379960;22;20181;-91
2022/02/27 03:58:50;;;;;;;277.13;70.38;;;;;;;;;;6380534;22;20177;-93
2022/02/27 04:01:17;;;;;;;290.30;74.05;;;;;;;;;;6380489;22;20173;-91
2022/02/27 04:03:45;;;;;;;296.90;73.05;;;;;;;;;;6381501;22;20202;-91
2022/02/27 04:06:11;;;;;;;279.40;69.72;;;;;;;;;;6381293;22;20229;-93
2022/02/27 04:08:38;;;;;;;294.25;71.53;;;;;;;;;;6381732;22;20177;-91
2022/02/27 04:11:04;;;;;;;296.40;74.53;;;;;;;;;;6381752;22;20173;-92
2022/02/27 04:13:31;;;;;;;290.55;75.60;;;;;;;;;;6381147;22;20198;-91
2022/02/27 04:15:57;;;;;;;285.65;72.20;;;;;;;;;;6381027;22;20203;-92
2022/02/27 04:18:24;;;;;;;289.13;72.38;;;;;;;;;;6381356;22;20172;-92
2022/02/27 04:20:52;;;;;;;291.75;73.07;;;;;;;;;;6381910;22;20225;-91
2022/02/27 04:23:18;;;;;;;278.42;70.38;;;;;;;;;;6381268;22;20544;-91
2022/02/27 04:25:45;;;;;;;282.67;71.22;;;;;;;;;;6380858;22;20200;-91
2022/02/27 04:28:11;;;;;;;291.23;75.25;;;;;;;;;;6380957;22;20198;-92
2022/02/27 04:30:38;;;;;;;293.08;71.72;;;;;;;;;;6380843;22;20199;-92
2022/02/27 04:33:04;;;;;;;300.67;73.88;;;;;;;;;;6381073;22;20172;-93
2022/02/27 04:35:31;;;;;;;299.80;72.95;;;;;;;;;;6381264;22;20833;-94
2022/02/27 04:37:58;;;;;;;300.52;70.80;;;;;;;;;;6381013;22;20506;-93
2022/02/27 04:40:25;;;;;;;306.98;78.90;;;;;;;;;;6381286;22;20173;-91
2022/02/27 04:42:52;;;;;;;295.50;73.00;;;;;;;;;;6380998;22;20176;-92
2022/02/27 04:45:18;;;;;;;310.17;73.65;;;;;;;;;;6380806;22;20200;-94
2022/02/27 04:47:45;;;;;;;304.40;75.63;;;;;;;;;;6380825;22;20173;-92
2022/02/27 04:50:11;;;;;;;300.58;73.30;;;;;;;;;;6378778;22;20173;-92
2022/02/27 04:52:38;;;;;;;314.90;75.30;;;;;;;;;;6379045;22;20173;-92
2022/02/27 04:55:06;;;;;;;312.75;75.18;;;;;;;;;;6377827;22;20234;-92
2022/02/27 04:57:33;;;;;;;303.67;74.00;;;;;;;;;;6378358;22;20173;-92
2022/02/27 05:00:00;;;;;;;303.90;74.70;;;;;;;;;;6380005;22;20172;-91
2022/02/27 05:02:27;;;;;;;313.45;77.30;;;;;;;;;;6380681;22;20179;-92
2022/02/27 05:04:53;;;;;;;307.02;74.10;;;;;;;;;;6379689;22;20222;-91
2022/02/27 05:07:19;;;;;;;297.00;72.68;;;;;;;;;;6379056;22;20180;-92
2022/02/27 05:09:46;;;;;;;307.17;74.60;;;;;;;;;;6378620;22;20172;-92
2022/02/27 05:12:14;;;;;;;305.80;72.38;;;;;;;;;;6379068;22;20626;-91
2022/02/27 05:14:40;;;;;;;313.90;76.60;;;;;;;;;;6378068;22;20229;-90
2022/02/27 05:17:07;;;;;;;313.60;75.60;;;;;;;;;;6378540;22;20172;-90
2022/02/27 05:19:33;;;;;;;302.08;73.90;;;;;;;;;;6380190;22;20176;-91
2022/02/27 05:22:00;;;;;;;312.70;74.30;;;;;;;;;;6380803;22;20176;-91
2022/02/27 05:24:26;;;;;;;322.85;76.47;;;;;;;;;;6380209;22;20592;-92
2022/02/27 05:26:53;;;;;;;332.08;80.40;;;;;;;;;;6379665;22;20253;-92
2022/02/27 05:29:20;;;;;;;308.30;74.50;;;;;;;;;;6380030;22;20172;-91
2022/02/27 05:31:47;;;;;;;298.65;74.95;;;;;;;;;;6380426;22;20169;-92
2022/02/27 05:34:13;;;;;;;311.08;75.80;;;;;;;;;;6380509;22;20173;-90
2022/02/27 05:36:40;;;;;;;325.33;77.30;;;;;;;;;;6379426;22;20208;-91
2022/02/27 05:39:06;;;;;;;313.35;73.97;;;;;;;;;;6380241;22;20177;-91
2022/02/27 05:41:33;;;;;;;319.40;77.10;;;;;;;;;;6379534;22;20173;-92
2022/02/27 05:43:59;;;;;;;327.95;76.03;;;;;;;;;;6380118;22;20198;-92
2022/02/27 05:46:27;;;;;;;315.80;73.00;;;;;;;;;;6379922;22;20196;-95
2022/02/27 05:48:54;;;;;;;302.58;66.38;;;;;;;;;;6381998;22;20206;-96
2022/02/27 05:51:20;;;;;;;294.75;68.60;;;;;;;;;;6380589;22;20177;-95
2022/02/27 05:53:47;;;;;;;299.48;67.50;;;;;;;;;;6380832;22;20176;-95
2022/02/27 05:56:14;;;;;;;318.88;77.57;;;;;;;;;;6381313;22;20230;-92
2022/02/27 05:58:40;;;;;;;303.48;74.18;;;;;;;;;;6382627;22;20177;-92
2022/02/27 06:01:07;;;;;;;307.90;74.43;;;;;;;;;;6382754;22;20697;-95
2022/02/27 06:03:35;;;;;;;299.77;73.95;;;;;;;;;;6382966;22;20192;-91
2022/02/27 06:06:01;;;;;;;336.88;79.90;;;;;;;;;;6379145;22;20230;-91
2022/02/27 06:08:27;;;;;;;302.55;69.40;;;;;;;;;;6380551;22;20173;-93
2022/02/27 06:10:54;;;;;;;146.98;62.20;;;;;;;;;;6379911;22;20199;-92
2022/02/27 06:13:20;;;;;;;152.57;62.83;;;;;;;;;;6380260;22;20177;-92
2022/02/27 06:15:47;;;;;;;148.68;63.10;;;;;;;;;;6378787;22;20197;-91
2022/02/27 06:18:13;;;;;;;150.90;61.88;;;;;;;;;;6379368;22;20218;-93
2022/02/27 06:20:41;;;;;;;141.70;59.30;;;;;;;;;;6380790;22;20180;-95
2022/02/27 06:23:09;;;;;;;148.65;62.75;;;;;;;;;;6380935;22;20181;-94
2022/02/27 06:25:36;;;;;;;150.38;61.88;;;;;;;;;;6379225;22;20192;-95
2022/02/27 06:28:03;;;;;;;156.52;65.80;;;;;;;;;;6378742;22;20173;-92
2022/02/27 06:30:29;;;;;;;159.45;65.85;;;;;;;;;;6380449;22;20179;-92
2022/02/27 06:32:56;;;;;;;158.05;68.05;;;;;;;;;;6380831;22;20199;-92
2022/02/27 06:35:23;;;;;;;169.10;70.32;;;;;;;;;;6380682;22;20207;-92
2022/02/27 06:37:52;;;;;;;170.80;71.90;;;;;;;;;;6378595;22;20177;-91
2022/02/27 06:40:19;;;;;;;161.38;68.30;;;;;;;;;;6380585;22;20398;-92
2022/02/27 06:42:46;;;;;;;166.57;70.50;;;;;;;;;;6378884;22;20648;-92
2022/02/27 06:45:13;;;;;;;174.05;75.13;;;;;;;;;;6368008;22;20218;-93
2022/02/27 06:47:39;;;;;;;166.82;70.35;;;;;;;;;;6370477;22;20172;-94
2022/02/27 06:50:06;;;;;;;169.77;71.82;;;;;;;;;;6377587;22;20172;-92
2022/02/27 06:52:33;;;;;;;159.98;66.80;;;;;;;;;;6378189;22;20173;-93
2022/02/27 06:55:01;;;;;;;159.17;66.60;;;;;;;;;;6377284;22;20194;-93
2022/02/27 06:57:28;;;;;;;162.63;66.57;;;;;;;;;;6377651;22;20892;-92
2022/02/27 06:59:55;;;;;;;158.25;66.45;;;;;;;;;;6380487;22;20194;-92
2022/02/27 07:02:21;;;;;;;159.52;67.20;;;;;;;;;;6380550;22;20176;-92
2022/02/27 07:04:48;;;;;;;158.40;65.00;;;;;;;;;;6373579;22;20173;-92
2022/02/27 07:07:14;;;;;;;156.05;64.40;;;;;;;;;;6378232;22;20446;-93
2022/02/27 07:09:41;;;;;;;160.68;67.38;;;;;;;;;;6379562;22;20242;-92
2022/02/27 07:12:09;;;;;;;155.47;64.20;;;;;;;;;;6378727;22;20176;-92
2022/02/27 07:14:36;;;;;;;166.80;67.67;;;;;;;;;;6376624;22;20434;-91
2022/02/27 07:17:02;;;;;;;156.10;65.03;;;;;;;;;;6376400;22;20406;-91
2022/02/27 07:19:29;;;;;;;150.02;60.85;;;;;;;;;;6379091;22;20832;-92
2022/02/27 07:21:55;;;;;;;145.90;60.22;;;;;;;;;;6379876;22;20765;-91
2022/02/27 07:24:22;;;;;;;147.10;60.87;;;;;;;;;;6380673;22;20234;-91
2022/02/27 07:26:48;;;;;;;146.75;60.20;;;;;;;;;;6379535;22;20453;-92
2022/02/27 07:29:16;;;;;;;153.27;61.35;;;;;;;;;;6380515;22;20173;-94
2022/02/27 07:31:42;;;;;;;152.60;62.22;;;;;;;;;;6379960;22;20177;-92
2022/02/27 07:34:12;;;;;;;160.23;66.95;;;;;;;;;;6379751;22;20202;-93
2022/02/27 07:36:38;;;;;;;160.00;67.13;;;;;;;;;;6377732;22;20192;-92
2022/02/27 07:39:05;;;;;;;166.43;62.95;;;;;;;;;;6379087;22;20172;-92
2022/02/27 07:41:31;;;;;;;158.65;67.28;;;;;;;;;;6378233;22;20176;-93
2022/02/27 07:43:58;;;;;;;162.65;68.30;;;;;;;;;;6377641;22;20177;-92
2022/02/27 07:46:25;;;;;;;168.00;69.97;;;;;;;;;;6378292;22;20666;-93
2022/02/27 07:48:52;;;;;;;157.45;65.03;;;;;;;;;;6377967;22;20172;-93
2022/02/27 07:51:18;;;;;;;154.55;63.58;;;;;;;;;;6378709;22;20633;-93
2022/02/27 07:53:45;;;;;;;156.50;64.60;;;;;;;;;;6379799;22;20168;-92
2022/02/27 07:56:11;;;;;;;157.23;67.63;;;;;;;;;;6378520;22;20238;-92
2022/02/27 07:58:38;;;;;;;141.53;64.37;;;;;;;;;;6379988;22;20176;-92
2022/02/27 08:01:04;;;;;;;152.88;62.97;;;;;;;;;;6379249;22;20173;-93
2022/02/27 08:03:33;;;;;;;146.48;63.35;;;;;;;;;;6380064;22;20199;-91
2022/02/27 08:05:59;;;;;;;145.25;61.38;;;;;;;;;;6378855;22;20196;-91
2022/02/27 08:08:26;;;;;;;144.70;64.07;;;;;;;;;;6378650;22;20200;-93
2022/02/27 08:10:52;;;;;;;150.40;63.65;;;;;;;;;;6379039;22;20411;-93
2022/02/27 08:13:19;;;;;;;156.77;69.37;;;;;;;;;;6372988;22;20176;-92
2022/02/27 08:15:45;;;;;;;151.23;65.90;;;;;;;;;;6370290;22;20460;-94
2022/02/27 08:18:12;;;;;;;144.37;66.20;;;;;;;;;;6370189;22;20472;-95
2022/02/27 08:20:40;;;;;;;150.03;64.80;;;;;;;;;;6374840;22;20410;-92
2022/02/27 08:23:06;;;;;;;146.75;65.30;;;;;;;;;;6375573;22;21209;-92
2022/02/27 08:25:33;;;;;;;146.60;62.97;;;;;;;;;;6377922;22;20534;-91
2022/02/27 08:27:59;;;;;;;145.30;63.00;;;;;;;;;;6379758;22;20432;-93
2022/02/27 08:30:26;;;;;;;142.80;62.40;;;;;;;;;;6379243;22;20402;-91
2022/02/27 08:32:52;;;;;;;137.00;61.70;;;;;;;;;;6378279;22;20399;-91
2022/02/27 08:35:18;;;;;;;137.87;63.37;;;;;;;;;;6377713;22;21257;-92
2022/02/27 08:37:47;;;;;;;142.67;64.23;;;;;;;;;;6377327;22;20406;-91
2022/02/27 08:40:13;;;;;;;142.70;65.57;;;;;;;;;;6378394;22;20399;-92
2022/02/27 08:42:40;;;;;;;138.37;62.80;;;;;;;;;;6378080;22;20437;-91
2022/02/27 08:45:07;;;;;;;143.83;64.50;;;;;;;;;;6375314;22;21168;-92
2022/02/27 08:47:33;;;;;;;151.07;67.93;;;;;;;;;;6369469;22;20480;-93
2022/02/27 08:50:00;;;;;;;146.90;65.60;;;;;;;;;;6372837;22;20440;-92
2022/02/27 08:52:26;;;;;;;143.13;63.83;;;;;;;;;;6373360;22;20499;-93
2022/02/27 08:54:54;;;;;;;145.77;64.50;;;;;;;;;;6376312;22;20440;-92
2022/02/27 08:57:21;;;;;;;144.40;64.77;;;;;;;;;;6371435;22;20472;-95
2022/02/27 08:59:47;;;;;;;142.35;64.40;;;;;;;;;;6376507;22;20410;-93
2022/02/27 09:02:28;;;;;;;146.47;65.50;;;;;;;;;;6375802;22;20172;-96
2022/02/27 09:04:54;;;;;;;147.47;65.77;;;;;;;;;;6378606;22;20426;-93
2022/02/27 09:07:21;;;;;;;145.80;65.90;;;;;;;;;;6376746;22;20476;-91
2022/02/27 09:09:47;;;;;;;148.90;66.97;;;;;;;;;;6375151;22;20399;-91
2022/02/27 09:12:15;;;;;;;139.10;64.67;;;;;;;;;;6371165;22;20496;-93
2022/02/27 09:14:42;;;;;;;145.77;66.87;;;;;;;;;;6373751;22;20491;-92
2022/02/27 09:17:09;;;;;;;144.73;62.27;;;;;;;;;;6377472;22;20406;-93
2022/02/27 09:19:36;;;;;;;143.37;65.70;;;;;;;;;;6377284;22;20407;-91
2022/02/27 09:22:02;;;;;;;140.30;62.57;;;;;;;;;;6377734;22;20407;-95
2022/02/27 09:24:29;;;;;;;133.25;61.00;;;;;;;;;;6378563;22;20914;-94
2022/02/27 09:26:55;;;;;;;134.40;60.43;;;;;;;;;;6379304;22;20248;-90
2022/02/27 09:29:23;;;;;;;136.53;61.90;;;;;;;;;;6378700;22;20407;-92
2022/02/27 09:31:50;;;;;;;142.10;64.40;;;;;;;;;;6377075;22;20406;-91
2022/02/27 09:34:16;;;;;;;138.80;62.00;;;;;;;;;;6379461;22;20399;-92
2022/02/27 09:36:43;;;;;;;136.10;60.90;;;;;;;;;;6380038;22;20511;-92
2022/02/27 09:39:09;;;;;;;139.67;62.20;;;;;;;;;;6381452;22;20467;-92
2022/02/27 09:41:36;;;;;;;137.53;61.67;;;;;;;;;;6378124;22;20432;-91
2022/02/27 09:44:04;;;;;;;140.57;63.33;;;;;;;;;;6372202;22;20411;-90
2022/02/27 09:46:35;;;;;;;142.93;64.60;;;;;;;;;;6372067;22;20473;-91
2022/02/27 09:49:01;;;;;;;140.07;65.10;;;;;;;;;;6372299;22;20601;-91
2022/02/27 09:51:28;;;;;;;135.50;61.90;;;;;;;;;;6370653;22;20486;-90
2022/02/27 09:53:54;;;;;;;135.57;61.70;;;;;;;;;;6374639;22;20462;-89
2022/02/27 09:56:21;;;;;;;143.73;65.83;;;;;;;;;;6373497;22;20615;-89
2022/02/27 09:58:47;;;;;;;139.37;62.63;;;;;;;;;;6373670;22;20440;-90
2022/02/27 10:01:15;;;;;;;140.60;63.90;;;;;;;;;;6362614;22;20400;-90
2022/02/27 10:03:43;;;;;;;140.30;61.80;;;;;;;;;;6371853;22;20406;-90
2022/02/27 10:06:11;;;;;;;137.90;62.47;;;;;;;;;;6376802;22;20403;-93
2022/02/27 10:08:38;;;;;;;140.23;62.60;;;;;;;;;;6378527;22;20469;-93
2022/02/27 10:11:05;;;;;;;140.00;62.10;;;;;;;;;;6378373;22;20406;-93
2022/02/27 10:13:33;;;;;;;141.33;61.87;;;;;;;;;;6378060;22;20500;-92
2022/02/27 10:16:03;;;;;;;138.97;61.97;;;;;;;;;;6379629;22;20426;-93
2022/02/27 10:18:37;;;;;;;136.60;61.93;;;;;;;;;;6379766;22;21110;-93
2022/02/27 10:21:05;;;;;;;135.67;63.27;;;;;;;;;;6379263;22;20399;-91
2022/02/27 10:23:31;;;;;;;142.03;60.40;;;;;;;;;;6380849;22;20399;-90
2022/02/27 10:25:57;;;;;;;132.80;59.30;;;;;;;;;;6378981;22;20399;-90
2022/02/27 10:28:24;;;;;;;133.80;60.43;;;;;;;;;;6379422;22;20479;-90
2022/02/27 10:30:51;;;;;;;142.23;63.80;;;;;;;;;;6377966;22;20407;-90
2022/02/27 10:33:22;;;;;;;145.90;63.47;;;;;;;;;;6373036;22;20403;-91
2022/02/27 10:35:49;;;;;;;145.35;67.82;;;;;;;;;;6373262;22;20455;-92
2022/02/27 10:38:18;;;;;;;143.55;66.15;;;;;;;;;;6376846;22;20173;-91
2022/02/27 10:40:45;;;;;;;137.13;62.80;;;;;;;;;;6381373;22;20173;-92
2022/02/27 10:43:12;;;;;;;137.57;60.58;;;;;;;;;;6378794;22;20415;-92
2022/02/27 10:45:39;;;;;;;142.70;63.20;;;;;;;;;;6382152;22;20173;-93
2022/02/27 10:48:07;;;;;;;128.25;57.90;;;;;;;;;;6381574;22;20246;-92
2022/02/27 10:50:34;;;;;;;139.82;62.30;;;;;;;;;;6378267;22;20210;-93
2022/02/27 10:53:02;;;;;;;168.80;76.25;;;;;;;;;;6377647;22;20228;-93
2022/02/27 10:55:31;;;;;;;144.55;64.97;;;;;;;;;;6377927;22;20221;-93
2022/02/27 10:57:58;;;;;;;135.40;61.75;;;;;;;;;;6379817;22;20169;-93
2022/02/27 11:00:25;;;;;;;126.97;58.20;;;;;;;;;;6381466;22;20222;-93
2022/02/27 11:02:52;;;;;;;134.27;58.60;;;;;;;;;;6381507;22;20173;-94
2022/02/27 11:05:20;;;;;;;144.20;62.90;;;;;;;;;;6379801;22;20297;-91
2022/02/27 11:07:47;;;;;;;129.10;58.45;;;;;;;;;;6380616;22;20197;-92
2022/02/27 11:10:15;;;;;;;133.27;61.30;;;;;;;;;;6378583;22;20242;-90
2022/02/27 11:12:43;;;;;;;141.10;64.20;;;;;;;;;;6379571;22;20173;-92
2022/02/27 11:15:12;;;;;;;150.43;67.88;;;;;;;;;;6379814;22;20446;-94
2022/02/27 11:17:41;;;;;;;133.80;59.95;;;;;;;;;;6381093;22;20173;-94
2022/02/27 11:20:08;;;;;;;133.20;58.55;;;;;;;;;;6379426;22;20176;-95
2022/02/27 11:22:35;;;;;;;127.60;58.70;;;;;;;;;;6384152;22;20201;-95
2022/02/27 11:25:02;;;;;;;134.25;60.75;;;;;;;;;;6379482;22;20183;-93
2022/02/27 11:27:29;;;;;;;132.45;59.38;;;;;;;;;;6380349;22;20197;-95
2022/02/27 11:29:58;;;;;;;131.95;58.80;;;;;;;;;;6381804;22;20169;-96
2022/02/27 11:32:25;;;;;;;135.25;59.65;;;;;;;;;;6383223;22;20180;-95
2022/02/27 11:34:52;;;;;;;137.60;61.15;;;;;;;;;;6383777;22;20173;-96
2022/02/27 11:37:34;;;;;;;127.95;57.03;;;;;;;;;;6389212;22;20173;-96
2022/02/27 11:40:29;;;;;;;141.65;61.10;;;;;;;;;;6384590;22;20177;-96
2022/02/27 11:42:56;;;;;;;135.90;60.47;;;;;;;;;;6382610;22;20173;-96
2022/02/27 11:45:44;;;;;;;132.30;60.42;;;;;;;;;;6386060;22;20172;-96
2022/02/27 11:48:11;;;;;;;133.68;59.83;;;;;;;;;;6386815;22;20254;-96
2022/02/27 11:50:44;;;;;;;134.85;58.58;;;;;;;;;;6389489;22;20163;-96
2022/02/27 11:53:22;;;;;;;131.75;58.05;;;;;;;;;;6386234;22;20215;-94
2022/02/27 11:56:27;;;;;;;130.07;58.10;;;;;;;;;;6393276;22;20260;-96
2022/02/27 12:01:57;;;;;;;140.05;59.50;;;;;;;;;;6312959;22;20184;-96
2022/02/27 12:04:48;;;;;;;124.65;56.03;;;;;;;;;;6400785;22;20152;-96
2022/02/27 12:07:14;;;;;;;129.40;57.28;;;;;;;;;;6374676;22;20215;-93
2022/02/27 12:15:18;;;;;;;132.05;58.03;;;;;;;;;;6327287;22;20188;-96
2022/02/27 12:18:10;;;;;;;131.18;57.60;;;;;;;;;;6382717;22;20192;-95
2022/02/27 12:20:51;;;;;;;129.38;57.40;;;;;;;;;;6396636;22;20157;-96
2022/02/27 12:23:38;;;;;;;129.65;57.78;;;;;;;;;;6392598;22;20176;-96
2022/02/27 12:26:05;;;;;;;132.13;58.97;;;;;;;;;;6390201;22;20172;-96
2022/02/27 12:28:51;;;;;;;130.48;56.72;;;;;;;;;;6391727;22;20192;-96
2022/02/27 12:31:18;;;;;;;128.07;56.42;;;;;;;;;;6397522;22;20212;-96
2022/02/27 12:33:45;;;;;;;128.23;56.00;;;;;;;;;;6399023;22;20184;-96
2022/02/27 12:36:20;;;;;;;133.43;57.25;;;;;;;;;;6400485;22;20168;-96
2022/02/27 12:41:29;;;;;;;130.88;55.88;;;;;;;;;;6352837;22;20184;-96
2022/02/27 12:52:23;;;;;;;151.05;65.72;;;;;;;;;;6335563;22;20161;-96
2022/02/27 12:55:25;;;;;;;157.77;64.65;;;;;;;;;;6335716;22;20162;-95
2022/02/27 13:04:11;;;;;;;136.88;61.60;;;;;;;;;;6359871;22;20219;-95
2022/02/27 13:06:40;;;;;;;140.93;61.28;;;;;;;;;;6400410;22;20140;-96
2022/02/27 13:09:09;;;;;;;132.13;59.15;;;;;;;;;;6400587;22;20172;-93
2022/02/27 13:14:06;;;;;;;131.73;58.45;;;;;;;;;;6375082;22;20209;-96
2022/02/27 13:16:33;;;;;;;134.55;57.75;;;;;;;;;;6397754;22;20172;-96
2022/02/27 13:36:30;;;;;;;130.77;58.15;;;;;;;;;;6373541;22;20235;-96
2022/02/27 13:38:57;;;;;;;130.27;59.20;;;;;;;;;;6331892;22;20185;-96
2022/02/27 13:41:27;;;;;;;136.25;58.53;;;;;;;;;;6388705;22;20173;-96
2022/02/27 13:43:54;;;;;;;126.30;56.08;;;;;;;;;;6388476;22;20172;-96
2022/02/27 13:46:20;;;;;;;127.03;57.85;;;;;;;;;;6388540;22;20173;-96
2022/02/27 13:48:47;;;;;;;131.30;58.10;;;;;;;;;;6366242;22;20191;-96
2022/02/27 13:51:24;;;;;;;130.07;58.30;;;;;;;;;;6389701;22;20238;-96
2022/02/27 14:33:37;;;;;;;126.75;53.33;;;;;;;;;;6276137;22;20220;-94
2022/02/27 14:36:07;;;;;;;119.65;53.72;;;;;;;;;;6312599;22;20212;-96
2022/02/27 14:38:39;;;;;;;120.28;53.72;;;;;;;;;;6381703;22;20173;-96
2022/02/27 14:41:07;;;;;;;119.97;53.47;;;;;;;;;;6387125;22;20434;-95
2022/02/27 14:43:34;;;;;;;120.93;53.42;;;;;;;;;;6379582;22;20172;-95
2022/02/27 14:46:20;;;;;;;118.70;52.38;;;;;;;;;;6388377;22;20163;-96
2022/02/27 14:51:41;;;;;;;118.22;53.33;;;;;;;;;;6297814;22;20195;-96
2022/02/27 14:54:08;;;;;;;118.78;55.17;;;;;;;;;;6298269;22;20171;-96
2022/02/27 14:56:35;;;;;;;125.63;55.10;;;;;;;;;;6290825;22;20171;-96
2022/02/27 14:59:01;;;;;;;121.28;54.58;;;;;;;;;;6287154;22;20177;-96
2022/02/27 15:20:03;;;;;;;130.77;58.95;;;;;;;;;;6284944;22;20254;-94
2022/02/27 15:22:31;;;;;;;126.85;57.70;;;;;;;;;;6285213;22;20926;-94
2022/02/27 15:38:22;;;;;;;119.50;53.30;;;;;;;;;;6249883;22;20209;-94
2022/02/27 15:40:49;;;;;;;119.22;53.25;;;;;;;;;;6342912;22;20173;-94
2022/02/27 15:43:17;;;;;;;120.20;54.20;;;;;;;;;;6348236;22;20203;-95
2022/02/27 15:45:43;;;;;;;121.45;54.05;;;;;;;;;;6347646;22;20193;-94
2022/02/27 15:48:10;;;;;;;116.05;51.72;;;;;;;;;;6350355;22;20205;-95
2022/02/27 15:50:36;;;;;;;120.25;53.90;;;;;;;;;;6345393;22;20200;-95
2022/02/27 15:53:03;;;;;;;118.20;52.15;;;;;;;;;;6351789;22;20427;-94
2022/02/27 15:55:31;;;;;;;117.90;52.95;;;;;;;;;;6348160;22;20173;-94
2022/02/27 15:57:58;;;;;;;118.00;53.83;;;;;;;;;;6345603;22;20192;-96
2022/02/27 16:00:25;;;;;;;116.95;52.17;;;;;;;;;;6353027;22;20175;-96
2022/02/27 16:02:52;;;;;;;119.43;52.95;;;;;;;;;;6352245;22;20197;-95
2022/02/27 16:05:19;;;;;;;117.40;53.10;;;;;;;;;;6352854;22;20297;-95
2022/02/27 16:07:46;;;;;;;121.45;54.35;;;;;;;;;;6349934;22;20193;-95